Time;durP1;ratioP1;P1;durP2;ratioP2;P2;SDS_P1;SDS_P2;PMS_P1;PMS_P2;Temp;Humidity;BMP_temperature;BMP_pressure;BME280_temperature;BME280_humidity;BME280_pressure;Samples;Min_cycle;Max_cycle;Signal;HPM_P1;HPM_P2
2024/03/24 00:00:20;;;;;;;2.20;1.97;;;4.10;99.90;;;;;;5094412;28;20248;-70
2024/03/24 00:02:46;;;;;;;2.60;1.60;;;4.10;99.90;;;;;;5094647;28;20487;-70
2024/03/24 00:05:11;;;;;;;5.67;1.80;;;4.00;99.90;;;;;;5094431;28;20172;-70
2024/03/24 00:07:37;;;;;;;2.40;2.00;;;4.00;99.90;;;;;;5078725;28;20177;-70
2024/03/24 00:10:02;;;;;;;10.97;1.77;;;4.00;99.90;;;;;;5073438;28;20205;-70
2024/03/24 00:12:28;;;;;;;2.53;1.60;;;4.00;99.90;;;;;;5070827;28;20182;-70
2024/03/24 00:14:54;;;;;;;3.83;2.10;;;4.00;99.90;;;;;;5073081;28;20236;-70
2024/03/24 00:17:21;;;;;;;4.70;2.07;;;4.10;99.90;;;;;;5073632;28;20186;-70
2024/03/24 00:19:47;;;;;;;4.73;1.90;;;4.10;99.90;;;;;;5073802;28;20424;-70
2024/03/24 00:22:12;;;;;;;2.90;2.67;;;4.20;99.90;;;;;;5054860;28;20424;-70
2024/03/24 00:24:38;;;;;;;2.97;1.93;;;4.30;99.90;;;;;;5073767;28;20261;-70
2024/03/24 00:27:03;;;;;;;2.30;1.80;;;4.40;99.90;;;;;;5073528;28;20579;-71
2024/03/24 00:29:29;;;;;;;3.73;2.20;;;4.50;99.90;;;;;;5072947;28;20699;-70
2024/03/24 00:31:55;;;;;;;1.83;1.57;;;4.50;99.90;;;;;;5079880;28;20232;-70
2024/03/24 00:34:20;;;;;;;3.30;2.50;;;4.60;99.90;;;;;;5070916;28;20180;-70
2024/03/24 00:36:46;;;;;;;2.70;2.20;;;4.60;99.90;;;;;;5060167;28;20206;-70
2024/03/24 00:39:11;;;;;;;6.40;2.70;;;4.60;99.90;;;;;;5071896;28;20297;-70
2024/03/24 00:41:37;;;;;;;4.33;2.17;;;4.60;99.90;;;;;;5048704;28;20159;-70
2024/03/24 00:44:02;;;;;;;5.40;1.67;;;4.70;99.90;;;;;;5067422;28;20178;-71
2024/03/24 00:46:28;;;;;;;2.10;1.90;;;4.70;99.90;;;;;;5064384;28;20173;-70
2024/03/24 00:48:53;;;;;;;3.10;2.00;;;4.70;99.90;;;;;;5073383;28;20214;-70
2024/03/24 00:51:20;;;;;;;2.87;1.83;;;4.70;99.90;;;;;;5053324;28;20599;-70
2024/03/24 00:53:45;;;;;;;3.80;2.03;;;4.80;99.90;;;;;;5062267;28;20683;-70
2024/03/24 00:56:11;;;;;;;3.57;2.13;;;4.80;99.90;;;;;;5069423;28;20412;-71
2024/03/24 00:58:37;;;;;;;3.20;2.33;;;4.80;99.90;;;;;;5062432;28;20812;-70
2024/03/24 01:01:04;;;;;;;2.97;2.20;;;4.80;99.90;;;;;;5066638;28;20745;-70
2024/03/24 01:03:29;;;;;;;9.00;3.17;;;4.80;99.90;;;;;;5058612;28;20757;-71
2024/03/24 01:05:55;;;;;;;4.27;1.90;;;4.80;99.90;;;;;;5064094;28;20420;-70
2024/03/24 01:08:21;;;;;;;1.73;1.50;;;4.80;99.90;;;;;;5066765;28;20198;-70
2024/03/24 01:10:46;;;;;;;4.00;2.17;;;4.70;99.90;;;;;;5066464;28;20173;-71
2024/03/24 01:13:12;;;;;;;4.97;3.00;;;4.70;99.90;;;;;;5067855;28;20791;-70
2024/03/24 01:15:45;;;;;;;3.50;1.90;;;4.70;99.90;;;;;;5058005;28;20175;-70
2024/03/24 01:18:11;;;;;;;4.87;2.50;;;4.70;99.90;;;;;;5045441;28;20263;-70
2024/03/24 01:20:37;;;;;;;2.43;2.20;;;4.70;99.90;;;;;;5062270;28;20418;-70
2024/03/24 01:23:03;;;;;;;4.77;2.47;;;4.70;99.90;;;;;;5069103;28;20794;-70
2024/03/24 01:25:28;;;;;;;6.23;2.87;;;4.70;99.90;;;;;;5063621;28;20174;-70
2024/03/24 01:27:54;;;;;;;4.67;2.20;;;4.60;99.90;;;;;;5057710;28;20170;-70
2024/03/24 01:30:19;;;;;;;2.23;1.80;;;4.60;99.90;;;;;;5061515;28;20596;-70
2024/03/24 01:32:45;;;;;;;5.50;2.40;;;4.50;99.90;;;;;;5073011;28;20574;-70
2024/03/24 01:35:10;;;;;;;2.50;2.10;;;4.50;99.90;;;;;;5057574;28;20178;-70
2024/03/24 01:37:36;;;;;;;3.67;2.63;;;4.50;99.90;;;;;;5061256;28;20239;-70
2024/03/24 01:40:02;;;;;;;2.40;2.20;;;4.50;99.90;;;;;;5061066;28;20677;-71
2024/03/24 01:42:28;;;;;;;3.30;2.83;;;4.50;99.90;;;;;;5064880;28;20162;-70
2024/03/24 01:44:54;;;;;;;2.37;2.17;;;4.50;99.90;;;;;;5060438;28;20401;-70
2024/03/24 01:47:20;;;;;;;3.20;2.10;;;4.50;99.90;;;;;;5066152;28;20175;-70
2024/03/24 01:49:45;;;;;;;4.40;3.20;;;4.50;99.90;;;;;;5064540;28;20619;-71
2024/03/24 01:52:13;;;;;;;3.63;2.50;;;4.60;99.90;;;;;;5069664;28;20285;-70
2024/03/24 01:54:39;;;;;;;5.90;2.40;;;4.70;99.90;;;;;;5072215;28;20166;-70
2024/03/24 01:57:05;;;;;;;2.90;2.37;;;4.80;99.90;;;;;;5051770;28;20450;-70
2024/03/24 01:59:30;;;;;;;10.90;3.90;;;4.90;99.90;;;;;;5058051;28;20670;-70
2024/03/24 02:01:56;;;;;;;6.23;2.57;;;5.00;99.90;;;;;;5060526;28;20229;-70
2024/03/24 02:04:22;;;;;;;3.20;2.70;;;5.00;99.90;;;;;;5059453;28;20209;-70
2024/03/24 02:06:48;;;;;;;3.37;3.07;;;4.90;99.90;;;;;;5063991;28;20452;-70
2024/03/24 02:09:14;;;;;;;6.10;3.13;;;5.00;99.90;;;;;;5067257;28;20808;-70
2024/03/24 02:11:39;;;;;;;5.17;2.70;;;4.90;99.90;;;;;;5065277;28;20204;-70
2024/03/24 02:14:05;;;;;;;7.60;3.17;;;4.90;99.90;;;;;;5058191;28;20653;-71
2024/03/24 02:16:30;;;;;;;3.50;2.47;;;4.90;99.90;;;;;;5055922;28;20195;-70
2024/03/24 02:18:56;;;;;;;4.13;3.40;;;4.90;99.90;;;;;;5061291;28;20225;-70
2024/03/24 02:21:21;;;;;;;4.87;3.57;;;4.90;99.90;;;;;;5054882;28;20645;-70
2024/03/24 02:23:50;;;;;;;3.50;3.03;;;5.00;99.90;;;;;;5071000;28;20212;-70
2024/03/24 02:26:16;;;;;;;6.47;4.30;;;5.00;99.90;;;;;;5060691;28;20177;-70
2024/03/24 02:28:42;;;;;;;8.57;4.17;;;5.10;99.90;;;;;;5056085;28;20433;-70
2024/03/24 02:31:08;;;;;;;7.00;3.83;;;5.20;99.90;;;;;;5060580;28;20401;-70
2024/03/24 02:33:33;;;;;;;3.70;3.27;;;5.30;99.90;;;;;;5070199;28;20428;-70
2024/03/24 02:35:59;;;;;;;4.17;3.30;;;5.30;99.90;;;;;;5064386;28;20171;-70
2024/03/24 02:38:24;;;;;;;5.43;3.10;;;5.30;99.90;;;;;;5051471;28;20205;-70
2024/03/24 02:40:50;;;;;;;4.30;2.90;;;5.30;99.90;;;;;;5047814;28;20174;-70
2024/03/24 02:43:16;;;;;;;4.67;3.10;;;5.40;99.90;;;;;;5054396;28;20526;-70
2024/03/24 02:45:42;;;;;;;3.80;3.40;;;5.40;99.90;;;;;;5052918;28;20181;-70
2024/03/24 02:48:07;;;;;;;4.50;3.80;;;5.40;99.90;;;;;;5048584;28;20618;-70
2024/03/24 02:50:33;;;;;;;9.60;3.47;;;5.50;99.90;;;;;;5060957;28;20171;-70
2024/03/24 02:52:59;;;;;;;4.20;3.40;;;5.50;99.90;;;;;;5074280;28;20459;-71
2024/03/24 02:55:25;;;;;;;4.57;3.40;;;5.60;99.90;;;;;;5072742;28;20440;-70
2024/03/24 02:57:54;;;;;;;4.50;2.60;;;5.60;99.90;;;;;;5068432;28;20190;-71
2024/03/24 03:00:20;;;;;;;10.00;4.33;;;5.70;99.90;;;;;;5061954;28;20205;-71
2024/03/24 03:02:46;;;;;;;5.23;2.67;;;5.70;99.90;;;;;;5070280;28;20447;-71
2024/03/24 03:05:12;;;;;;;3.23;2.90;;;5.70;99.90;;;;;;5065657;28;20836;-71
2024/03/24 03:07:37;;;;;;;3.83;2.97;;;5.70;99.90;;;;;;5064518;28;20674;-71
2024/03/24 03:10:08;;;;;;;5.60;2.83;;;5.80;99.90;;;;;;5076588;28;20194;-71
2024/03/24 03:12:35;;;;;;;3.87;2.90;;;5.70;99.90;;;;;;5074842;28;20166;-71
2024/03/24 03:15:04;;;;;;;4.40;3.03;;;5.70;99.90;;;;;;5064280;28;20409;-71
2024/03/24 03:17:31;;;;;;;2.50;2.10;;;5.70;99.90;;;;;;5068409;28;20455;-71
2024/03/24 03:19:57;;;;;;;7.97;2.10;;;5.70;99.90;;;;;;5065266;28;20436;-71
2024/03/24 03:22:22;;;;;;;3.37;2.33;;;5.70;99.90;;;;;;5067786;28;20408;-71
2024/03/24 03:24:48;;;;;;;3.97;3.50;;;5.70;99.90;;;;;;5067294;28;20425;-68
2024/03/24 03:27:14;;;;;;;5.80;2.70;;;5.60;99.90;;;;;;5067611;28;20171;-71
2024/03/24 03:29:39;;;;;;;2.27;2.07;;;5.50;99.90;;;;;;5053858;28;21028;-71
2024/03/24 03:32:05;;;;;;;3.70;1.87;;;5.50;99.90;;;;;;5066300;28;20205;-71
2024/03/24 03:34:31;;;;;;;5.53;2.20;;;5.40;99.90;;;;;;5071654;28;20179;-71
2024/03/24 03:36:56;;;;;;;3.00;2.70;;;5.30;99.90;;;;;;5066547;28;20197;-71
2024/03/24 03:39:22;;;;;;;4.90;2.30;;;5.40;99.90;;;;;;5063988;28;20658;-71
2024/03/24 03:41:47;;;;;;;3.43;2.67;;;5.30;99.90;;;;;;5064387;28;20173;-71
2024/03/24 03:44:13;;;;;;;2.27;2.07;;;5.30;99.90;;;;;;5072294;28;20176;-71
2024/03/24 03:46:38;;;;;;;2.17;1.97;;;5.10;99.90;;;;;;5061349;28;20547;-71
2024/03/24 03:49:04;;;;;;;4.70;2.37;;;5.10;99.90;;;;;;5063584;28;20202;-71
2024/03/24 03:51:37;;;;;;;3.03;2.67;;;5.10;99.90;;;;;;5071447;28;20178;-71
2024/03/24 03:54:04;;;;;;;2.60;2.17;;;5.10;99.90;;;;;;5065586;28;20187;-71
2024/03/24 03:56:30;;;;;;;5.70;2.30;;;5.10;99.90;;;;;;5053633;28;20554;-68
2024/03/24 03:58:55;;;;;;;3.10;2.07;;;5.10;99.90;;;;;;5062360;28;20441;-71
2024/03/24 04:01:21;;;;;;;5.80;2.40;;;5.10;99.90;;;;;;5060524;28;20413;-71
2024/03/24 04:03:47;;;;;;;11.67;2.37;;;5.20;99.90;;;;;;5066237;28;20167;-70
2024/03/24 04:06:12;;;;;;;2.40;2.20;;;5.10;99.90;;;;;;5072982;28;20171;-71
2024/03/24 04:08:39;;;;;;;2.33;2.13;;;5.10;99.90;;;;;;5065691;28;20539;-71
2024/03/24 04:11:07;;;;;;;3.30;1.73;;;5.10;99.90;;;;;;5065031;28;20179;-71
2024/03/24 04:13:32;;;;;;;2.40;2.00;;;5.20;99.90;;;;;;5060995;28;20437;-71
2024/03/24 04:15:58;;;;;;;2.73;2.00;;;5.10;99.90;;;;;;5070824;28;20443;-71
2024/03/24 04:18:23;;;;;;;6.03;1.90;;;5.10;99.90;;;;;;5066803;28;20198;-71
2024/03/24 04:20:49;;;;;;;2.20;2.00;;;5.00;99.90;;;;;;5064246;28;20224;-69
2024/03/24 04:23:15;;;;;;;2.60;1.90;;;5.10;99.90;;;;;;5063702;28;20166;-71
2024/03/24 04:25:40;;;;;;;2.47;1.93;;;5.00;99.90;;;;;;5058177;28;20236;-71
2024/03/24 04:28:06;;;;;;;7.90;2.20;;;5.00;99.90;;;;;;5068360;28;20308;-71
2024/03/24 04:30:32;;;;;;;3.10;2.10;;;5.00;99.90;;;;;;5070310;28;20182;-71
2024/03/24 04:32:59;;;;;;;2.33;1.97;;;5.00;99.90;;;;;;5062962;28;20212;-71
2024/03/24 04:35:24;;;;;;;2.03;1.83;;;5.10;99.90;;;;;;5069563;28;20409;-71
2024/03/24 04:37:50;;;;;;;1.60;1.50;;;5.10;99.90;;;;;;5059360;28;20817;-71
2024/03/24 04:40:16;;;;;;;2.53;2.30;;;5.10;99.90;;;;;;5060224;28;20198;-71
2024/03/24 04:42:42;;;;;;;3.37;2.27;;;5.10;99.90;;;;;;5069640;28;20174;-71
2024/03/24 04:45:08;;;;;;;3.90;2.37;;;5.10;99.90;;;;;;5068763;28;20740;-71
2024/03/24 04:47:33;;;;;;;5.13;2.17;;;5.20;99.90;;;;;;5074117;28;20420;-71
2024/03/24 04:49:59;;;;;;;4.80;2.03;;;5.20;99.90;;;;;;5045269;28;20452;-71
2024/03/24 04:52:24;;;;;;;4.90;2.73;;;5.10;99.90;;;;;;5062955;28;20227;-71
2024/03/24 04:54:50;;;;;;;3.20;2.90;;;5.10;99.90;;;;;;5070228;28;20170;-71
2024/03/24 04:57:16;;;;;;;4.70;2.60;;;5.00;99.90;;;;;;5058312;28;20273;-71
2024/03/24 04:59:42;;;;;;;5.03;2.50;;;5.00;99.90;;;;;;5060669;28;20201;-71
2024/03/24 05:02:08;;;;;;;8.50;3.60;;;5.00;99.90;;;;;;5061938;28;20450;-71
2024/03/24 05:04:35;;;;;;;3.27;2.50;;;5.00;99.90;;;;;;5055435;28;20491;-71
2024/03/24 05:07:01;;;;;;;3.97;2.97;;;5.00;99.90;;;;;;5068679;28;20293;-71
2024/03/24 05:09:27;;;;;;;10.73;2.53;;;5.10;99.90;;;;;;5065480;28;20516;-71
2024/03/24 05:11:52;;;;;;;7.43;3.30;;;5.20;99.90;;;;;;5070022;28;20252;-71
2024/03/24 05:14:18;;;;;;;4.53;2.60;;;5.20;99.90;;;;;;5070155;28;20940;-71
2024/03/24 05:16:43;;;;;;;3.90;2.20;;;5.10;99.90;;;;;;5059285;28;20195;-71
2024/03/24 05:19:09;;;;;;;3.60;2.43;;;5.20;99.90;;;;;;5062300;28;20203;-71
2024/03/24 05:21:37;;;;;;;7.37;3.30;;;5.20;99.90;;;;;;5070509;28;20162;-71
2024/03/24 05:24:06;;;;;;;8.03;3.07;;;5.20;99.90;;;;;;5079829;28;20208;-71
2024/03/24 05:26:31;;;;;;;3.80;2.17;;;5.30;99.90;;;;;;5057313;28;20421;-71
2024/03/24 05:28:57;;;;;;;4.63;3.00;;;5.30;99.90;;;;;;5062735;28;20794;-71
2024/03/24 05:31:22;;;;;;;5.10;3.23;;;5.20;99.90;;;;;;5069909;28;20181;-71
2024/03/24 05:33:48;;;;;;;6.00;3.30;;;5.30;99.90;;;;;;5072146;28;20173;-71
2024/03/24 05:36:14;;;;;;;5.43;2.20;;;5.30;99.90;;;;;;5042417;28;20167;-71
2024/03/24 05:38:39;;;;;;;5.00;2.70;;;5.40;99.90;;;;;;5068279;28;20703;-71
2024/03/24 05:41:07;;;;;;;5.63;3.13;;;5.40;99.90;;;;;;5055119;28;20680;-71
2024/03/24 05:43:33;;;;;;;11.00;6.93;;;5.40;99.90;;;;;;5074969;28;20208;-71
2024/03/24 05:45:58;;;;;;;8.87;4.37;;;5.50;99.90;;;;;;5048153;28;20431;-71
2024/03/24 05:48:24;;;;;;;3.60;2.97;;;5.60;99.90;;;;;;5060977;28;20539;-71
2024/03/24 05:51:04;;;;;;;5.57;3.43;;;5.60;99.90;;;;;;5070249;28;20174;-70
2024/03/24 05:53:30;;;;;;;6.87;3.13;;;5.70;99.90;;;;;;5071763;28;20424;-70
2024/03/24 05:56:02;;;;;;;8.77;3.30;;;5.70;99.90;;;;;;5064145;28;20440;-69
2024/03/24 05:58:29;;;;;;;8.40;4.00;;;5.80;99.90;;;;;;5033678;28;20820;-70
2024/03/24 06:00:55;;;;;;;5.57;3.97;;;5.80;99.90;;;;;;5062568;28;21052;-70
2024/03/24 06:03:20;;;;;;;4.30;2.63;;;5.90;99.90;;;;;;5058374;28;20463;-70
2024/03/24 06:05:46;;;;;;;5.13;2.93;;;5.90;99.90;;;;;;5050163;28;20409;-70
2024/03/24 06:08:12;;;;;;;4.77;2.67;;;5.90;99.90;;;;;;5037695;28;20309;-70
2024/03/24 06:10:40;;;;;;;4.70;2.97;;;6.00;99.90;;;;;;5063763;28;20216;-70
2024/03/24 06:13:05;;;;;;;5.43;3.30;;;6.00;99.90;;;;;;5062808;28;20186;-70
2024/03/24 06:15:31;;;;;;;6.13;3.33;;;6.10;99.90;;;;;;5066192;28;20432;-70
2024/03/24 06:17:57;;;;;;;5.67;3.07;;;6.20;99.90;;;;;;5068674;28;20194;-70
2024/03/24 06:20:22;;;;;;;5.43;3.70;;;6.20;99.90;;;;;;5061914;28;20238;-70
2024/03/24 06:22:48;;;;;;;6.00;3.03;;;6.30;99.90;;;;;;5058636;28;20182;-70
2024/03/24 06:25:13;;;;;;;16.57;3.60;;;6.40;99.90;;;;;;5065010;28;20174;-70
2024/03/24 06:27:39;;;;;;;13.20;3.50;;;6.50;99.90;;;;;;5052196;28;20261;-70
2024/03/24 06:30:05;;;;;;;5.77;2.60;;;6.40;99.90;;;;;;5057606;28;20292;-70
2024/03/24 06:32:31;;;;;;;5.63;3.10;;;6.40;99.90;;;;;;5064229;28;20182;-70
2024/03/24 06:34:57;;;;;;;6.53;2.33;;;6.40;99.90;;;;;;5065264;28;20492;-70
2024/03/24 06:37:22;;;;;;;5.13;2.80;;;6.40;99.90;;;;;;5062472;28;20858;-70
2024/03/24 06:39:49;;;;;;;8.00;3.00;;;6.50;99.90;;;;;;5067512;28;20198;-70
2024/03/24 06:42:14;;;;;;;6.57;2.77;;;6.80;99.90;;;;;;5071454;28;20162;-70
2024/03/24 06:44:41;;;;;;;6.40;2.80;;;7.20;99.90;;;;;;5059826;28;20934;-70
2024/03/24 06:47:07;;;;;;;4.23;2.40;;;7.70;99.90;;;;;;5063367;28;20253;-70
2024/03/24 06:49:33;;;;;;;6.00;3.00;;;7.90;99.90;;;;;;5079682;28;20435;-70
2024/03/24 06:51:58;;;;;;;9.80;2.90;;;7.90;99.90;;;;;;5069305;28;20575;-70
2024/03/24 06:54:24;;;;;;;9.53;3.30;;;7.80;99.90;;;;;;5064343;28;20412;-70
2024/03/24 06:56:49;;;;;;;5.73;3.90;;;7.80;99.90;;;;;;5060310;28;20195;-70
2024/03/24 06:59:15;;;;;;;5.47;2.60;;;7.90;99.90;;;;;;5055657;28;20205;-70
2024/03/24 07:01:40;;;;;;;9.17;3.13;;;7.80;99.90;;;;;;5060600;28;20672;-70
2024/03/24 07:04:06;;;;;;;7.90;3.80;;;7.80;99.90;;;;;;5057345;28;20182;-70
2024/03/24 07:06:32;;;;;;;10.60;5.50;;;7.60;99.90;;;;;;5066825;28;20182;-70
2024/03/24 07:08:58;;;;;;;5.13;2.50;;;7.40;99.90;;;;;;5062022;28;20202;-70
2024/03/24 07:11:24;;;;;;;6.80;2.10;;;7.40;99.90;;;;;;5062912;28;20450;-71
2024/03/24 07:13:49;;;;;;;4.73;2.87;;;7.30;99.90;;;;;;5079757;28;20491;-70
2024/03/24 07:16:15;;;;;;;3.73;2.57;;;7.10;99.90;;;;;;5052513;28;20424;-70
2024/03/24 07:18:40;;;;;;;4.70;2.73;;;7.00;99.90;;;;;;5067485;28;20206;-70
2024/03/24 07:21:07;;;;;;;5.93;3.20;;;7.00;99.90;;;;;;5063523;28;20249;-70
2024/03/24 07:23:33;;;;;;;6.47;3.30;;;7.00;99.90;;;;;;5062116;28;20166;-70
2024/03/24 07:25:58;;;;;;;3.37;2.50;;;7.00;99.90;;;;;;5067052;28;20423;-71
2024/03/24 07:28:24;;;;;;;9.63;3.10;;;6.90;99.90;;;;;;5062971;28;20206;-69
2024/03/24 07:30:49;;;;;;;6.33;2.77;;;6.90;99.90;;;;;;5073820;28;20178;-70
2024/03/24 07:33:15;;;;;;;8.20;2.40;;;7.00;99.90;;;;;;5070414;28;20622;-69
2024/03/24 07:35:41;;;;;;;12.23;3.07;;;6.80;99.90;;;;;;5061376;28;20186;-70
2024/03/24 07:38:07;;;;;;;5.47;2.47;;;6.80;99.90;;;;;;5063629;28;20672;-70
2024/03/24 07:40:33;;;;;;;3.00;1.77;;;6.80;99.90;;;;;;5066370;28;20420;-71
2024/03/24 07:42:58;;;;;;;4.20;2.40;;;6.90;99.90;;;;;;5065081;28;20182;-71
2024/03/24 07:45:24;;;;;;;4.33;2.37;;;6.90;99.90;;;;;;5058043;28;20409;-69
2024/03/24 07:47:51;;;;;;;2.30;1.60;;;6.90;99.90;;;;;;5061561;28;20182;-69
2024/03/24 07:50:17;;;;;;;4.50;1.80;;;7.00;99.90;;;;;;5066543;28;20511;-69
2024/03/24 07:52:43;;;;;;;10.23;2.50;;;7.00;99.90;;;;;;5063203;28;20466;-71
2024/03/24 07:55:08;;;;;;;2.50;1.83;;;7.20;99.90;;;;;;5062036;28;20465;-69
2024/03/24 07:57:34;;;;;;;3.47;2.53;;;7.30;99.90;;;;;;5073383;28;20194;-70
2024/03/24 08:00:00;;;;;;;3.00;2.30;;;7.30;99.90;;;;;;5059540;28;20187;-69
2024/03/24 08:02:26;;;;;;;4.70;2.10;;;7.80;99.90;;;;;;5060516;28;20424;-70
2024/03/24 08:04:51;;;;;;;2.60;2.17;;;8.40;99.90;;;;;;5069179;28;20548;-71
2024/03/24 08:07:17;;;;;;;5.63;2.13;;;8.70;99.90;;;;;;5055348;28;20174;-71
2024/03/24 08:09:42;;;;;;;2.53;1.60;;;9.20;99.90;;;;;;5068235;28;20259;-70
2024/03/24 08:12:08;;;;;;;2.10;1.50;;;9.30;99.90;;;;;;5072070;28;20205;-69
2024/03/24 08:14:33;;;;;;;1.97;1.23;;;9.40;99.90;;;;;;5062321;28;20253;-70
2024/03/24 08:16:59;;;;;;;3.00;1.70;;;9.30;99.90;;;;;;5052409;28;20198;-71
2024/03/24 08:19:25;;;;;;;3.03;1.47;;;9.40;99.90;;;;;;5062772;28;20244;-69
2024/03/24 08:21:51;;;;;;;1.27;1.10;;;10.20;99.90;;;;;;5062154;28;20193;-69
2024/03/24 08:24:18;;;;;;;3.40;1.83;;;10.70;99.90;;;;;;5066665;28;20167;-71
2024/03/24 08:26:44;;;;;;;1.90;1.70;;;11.60;99.90;;;;;;5062843;28;20779;-70
2024/03/24 08:29:10;;;;;;;2.03;1.23;;;11.50;99.90;;;;;;5063892;28;20429;-70
2024/03/24 08:31:35;;;;;;;1.87;1.67;;;11.90;99.90;;;;;;5065034;28;20442;-71
2024/03/24 08:34:01;;;;;;;1.50;1.20;;;13.20;99.90;;;;;;5080039;28;20214;-69
2024/03/24 08:36:26;;;;;;;3.00;1.37;;;14.50;99.90;;;;;;5066522;28;20170;-69
2024/03/24 08:38:52;;;;;;;1.47;1.37;;;16.20;99.90;;;;;;5060639;28;20228;-71
2024/03/24 08:41:18;;;;;;;1.40;1.20;;;17.30;99.90;;;;;;5059588;28;20181;-71
2024/03/24 08:43:43;;;;;;;3.90;1.50;;;16.80;78.90;;;;;;5066445;28;20261;-70
2024/03/24 08:46:09;;;;;;;3.43;1.27;;;16.10;78.40;;;;;;5065615;28;20174;-70
2024/03/24 08:48:34;;;;;;;1.97;1.57;;;16.00;90.90;;;;;;5069419;28;20202;-70
2024/03/24 08:51:00;;;;;;;1.73;1.10;;;16.10;92.40;;;;;;5073265;28;20229;-70
2024/03/24 08:53:25;;;;;;;1.97;1.80;;;17.40;96.40;;;;;;5072279;28;20608;-71
2024/03/24 08:55:51;;;;;;;2.50;1.20;;;19.50;81.40;;;;;;5060954;28;20181;-71
2024/03/24 08:58:16;;;;;;;1.83;1.30;;;20.40;57.10;;;;;;5072562;28;20255;-71
2024/03/24 09:00:45;;;;;;;4.33;3.10;;;20.70;53.10;;;;;;5073402;28;20174;-70
2024/03/24 09:03:10;;;;;;;2.60;2.40;;;20.30;50.10;;;;;;5070668;28;20174;-70
2024/03/24 09:05:36;;;;;;;1.60;1.50;;;19.50;50.00;;;;;;5060674;28;20473;-71
2024/03/24 09:08:01;;;;;;;2.50;1.87;;;17.80;49.70;;;;;;5067944;28;20174;-70
2024/03/24 09:10:27;;;;;;;3.00;1.80;;;18.50;54.20;;;;;;5072826;28;20537;-70
2024/03/24 09:12:53;;;;;;;4.90;2.30;;;17.60;52.10;;;;;;5072635;28;20197;-70
2024/03/24 09:15:19;;;;;;;2.77;1.90;;;16.60;53.20;;;;;;5067095;28;20178;-70
2024/03/24 09:17:44;;;;;;;2.93;1.90;;;15.40;57.50;;;;;;5063644;28;20258;-71
2024/03/24 09:20:10;;;;;;;3.13;2.27;;;14.70;92.60;;;;;;5069186;28;20975;-70
2024/03/24 09:22:36;;;;;;;3.50;2.03;;;15.20;94.60;;;;;;5057743;28;20182;-70
2024/03/24 09:25:01;;;;;;;3.10;2.23;;;15.30;92.80;;;;;;5062495;28;20974;-71
2024/03/24 09:27:27;;;;;;;4.10;2.10;;;15.60;99.40;;;;;;5062627;28;20676;-70
2024/03/24 09:29:53;;;;;;;3.33;1.80;;;17.50;80.30;;;;;;5066247;28;20323;-72
2024/03/24 09:32:18;;;;;;;3.20;2.10;;;19.00;66.50;;;;;;5072281;28;20182;-70
2024/03/24 09:34:44;;;;;;;2.10;1.63;;;19.40;56.40;;;;;;5072658;28;20170;-71
2024/03/24 09:37:09;;;;;;;4.03;1.87;;;19.50;53.40;;;;;;5072613;28;20190;-71
2024/03/24 09:39:35;;;;;;;4.13;3.07;;;20.60;54.60;;;;;;5066400;28;20200;-71
2024/03/24 09:42:03;;;;;;;2.67;2.07;;;21.10;49.30;;;;;;5060366;28;20236;-72
2024/03/24 09:44:30;;;;;;;4.80;2.57;;;20.30;46.20;;;;;;5071994;28;20178;-71
2024/03/24 09:46:59;;;;;;;5.60;3.83;;;19.90;46.50;;;;;;5072131;28;20451;-71
2024/03/24 09:49:26;;;;;;;6.00;2.53;;;19.00;47.40;;;;;;5052085;28;20440;-70
2024/03/24 09:51:53;;;;;;;2.57;2.37;;;19.40;48.70;;;;;;5063620;28;20459;-70
2024/03/24 09:54:18;;;;;;;3.40;2.43;;;19.70;49.30;;;;;;5071909;28;20511;-70
2024/03/24 09:56:44;;;;;;;3.57;2.47;;;19.00;47.00;;;;;;5071172;28;20535;-70
2024/03/24 09:59:10;;;;;;;3.33;3.03;;;18.80;49.20;;;;;;5071782;28;20657;-70
2024/03/24 10:01:38;;;;;;;7.63;5.23;;;18.50;49.40;;;;;;5071938;28;20427;-70
2024/03/24 10:04:06;;;;;;;6.93;2.63;;;17.70;49.50;;;;;;5071706;28;20206;-71
2024/03/24 10:06:33;;;;;;;3.90;2.40;;;17.20;51.50;;;;;;5071466;28;20440;-70
2024/03/24 10:08:59;;;;;;;4.40;2.97;;;16.60;53.50;;;;;;5071120;28;21053;-70
2024/03/24 10:11:31;;;;;;;3.20;2.50;;;16.30;57.50;;;;;;5071178;28;20444;-70
2024/03/24 10:13:59;;;;;;;4.03;2.83;;;17.50;68.30;;;;;;5071649;28;20625;-70
2024/03/24 10:16:24;;;;;;;4.20;2.50;;;18.70;58.60;;;;;;5061995;28;20483;-70
2024/03/24 10:18:50;;;;;;;5.20;2.43;;;19.50;52.80;;;;;;5067417;28;20432;-70
2024/03/24 10:21:20;;;;;;;4.53;2.40;;;18.90;49.90;;;;;;5071716;28;20185;-70
2024/03/24 10:23:46;;;;;;;2.93;1.93;;;18.70;50.30;;;;;;5071570;28;20400;-70
2024/03/24 10:26:21;;;;;;;8.00;2.33;;;20.00;50.30;;;;;;5071572;28;20516;-71
2024/03/24 10:28:49;;;;;;;10.37;7.90;;;21.80;49.50;;;;;;5071625;28;20481;-70
2024/03/24 10:31:15;;;;;;;3.17;2.80;;;22.80;45.50;;;;;;5068077;28;20426;-71
2024/03/24 10:33:41;;;;;;;4.13;2.70;;;24.00;45.00;;;;;;5064269;28;20451;-71
2024/03/24 10:36:08;;;;;;;4.90;2.37;;;26.50;42.80;;;;;;5071281;28;20444;-69
2024/03/24 10:38:36;;;;;;;6.63;2.27;;;26.00;36.40;;;;;;5069381;28;20468;-70
2024/03/24 10:41:03;;;;;;;3.83;2.50;;;25.30;37.10;;;;;;5068263;28;20420;-69
2024/03/24 10:43:28;;;;;;;5.20;3.57;;;25.70;36.20;;;;;;5071129;28;20504;-69
2024/03/24 10:45:55;;;;;;;4.97;3.47;;;23.60;33.40;;;;;;5071235;28;20896;-69
2024/03/24 10:48:32;;;;;;;4.03;2.57;;;22.50;35.40;;;;;;5053196;28;20696;-70
2024/03/24 10:51:01;;;;;;;2.50;2.00;;;20.80;36.50;;;;;;5059615;28;20801;-71
2024/03/24 10:53:28;;;;;;;5.57;2.53;;;21.50;40.00;;;;;;5059955;28;20433;-71
2024/03/24 10:55:58;;;;;;;5.90;3.53;;;21.10;37.90;;;;;;5071058;28;20416;-71
2024/03/24 10:58:24;;;;;;;5.27;3.40;;;20.90;38.20;;;;;;5051725;28;20479;-71
2024/03/24 11:00:50;;;;;;;3.97;2.67;;;20.50;38.60;;;;;;5053904;28;20456;-73
2024/03/24 11:03:17;;;;;;;3.63;2.50;;;20.90;40.00;;;;;;5063256;28;20471;-72
2024/03/24 11:05:45;;;;;;;4.30;2.63;;;21.70;40.80;;;;;;5071042;28;20400;-71
2024/03/24 11:08:13;;;;;;;5.30;2.53;;;22.80;38.90;;;;;;5058709;28;20432;-69
2024/03/24 11:10:45;;;;;;;5.00;2.60;;;23.70;38.60;;;;;;5052484;28;20432;-70
2024/03/24 11:13:13;;;;;;;6.83;2.27;;;24.60;36.50;;;;;;5070562;28;20423;-70
2024/03/24 11:15:42;;;;;;;7.87;2.50;;;26.30;35.40;;;;;;5070988;28;20408;-70
2024/03/24 11:18:21;;;;;;;2.40;2.20;;;28.80;35.40;;;;;;5070588;28;20983;-71
2024/03/24 11:20:59;;;;;;;3.00;1.90;;;30.40;30.90;;;;;;5072231;28;20926;-70
2024/03/24 11:23:35;;;;;;;4.93;2.50;;;29.80;28.40;;;;;;5074952;28;20407;-71
2024/03/24 11:26:03;;;;;;;2.57;2.33;;;27.70;28.70;;;;;;5056714;28;20814;-70
2024/03/24 11:28:44;;;;;;;5.00;3.77;;;25.00;28.40;;;;;;5074780;28;20463;-71
2024/03/24 11:31:33;;;;;;;2.43;2.23;;;23.00;30.30;;;;;;5074838;28;20416;-72
2024/03/24 11:33:58;;;;;;;4.83;1.77;;;21.10;32.70;;;;;;5074734;28;20888;-70
2024/03/24 11:36:25;;;;;;;4.23;2.87;;;19.40;34.10;;;;;;5056417;28;20423;-69
2024/03/24 11:38:53;;;;;;;6.80;2.30;;;18.40;36.80;;;;;;5074539;28;20210;-70
2024/03/24 11:41:19;;;;;;;3.33;1.63;;;17.00;37.70;;;;;;5074636;28;20403;-69
2024/03/24 11:44:01;;;;;;;4.07;2.60;;;16.40;39.80;;;;;;5074616;28;20404;-69
2024/03/24 11:46:28;;;;;;;7.10;1.80;;;15.80;41.00;;;;;;5074713;28;20755;-70
2024/03/24 11:49:01;;;;;;;2.07;1.60;;;15.20;42.40;;;;;;5074413;28;20945;-69
2024/03/24 11:51:27;;;;;;;4.93;1.90;;;14.50;43.00;;;;;;5074289;28;20396;-70
2024/03/24 11:53:56;;;;;;;7.63;1.93;;;14.30;44.40;;;;;;5074366;28;20495;-70
2024/03/24 11:56:25;;;;;;;3.47;1.80;;;14.20;45.90;;;;;;5074103;28;20397;-70
2024/03/24 11:58:53;;;;;;;1.97;1.70;;;13.90;47.10;;;;;;5056364;28;21032;-70
2024/03/24 12:01:19;;;;;;;5.30;2.00;;;14.00;49.40;;;;;;5074312;28;20404;-70
2024/03/24 12:03:45;;;;;;;3.03;1.80;;;13.90;51.40;;;;;;5074140;28;20404;-72
2024/03/24 12:06:13;;;;;;;5.20;2.40;;;13.90;53.50;;;;;;5073944;28;20753;-71
2024/03/24 12:08:39;;;;;;;3.13;2.40;;;13.90;55.40;;;;;;5074085;28;20440;-70
2024/03/24 12:11:05;;;;;;;7.63;3.50;;;13.70;62.50;;;;;;5074210;28;20596;-70
2024/03/24 12:13:30;;;;;;;3.00;2.00;;;13.10;76.70;;;;;;5074048;28;20401;-70
2024/03/24 12:15:56;;;;;;;3.90;2.00;;;12.90;95.20;;;;;;5073716;28;20194;-70
2024/03/24 12:18:21;;;;;;;4.80;3.33;;;12.80;99.90;;;;;;5073763;28;20281;-71
2024/03/24 12:20:48;;;;;;;10.00;3.63;;;12.70;99.90;;;;;;5073967;28;20237;-70
2024/03/24 12:23:14;;;;;;;3.60;2.60;;;12.70;99.90;;;;;;5073851;28;20200;-71
2024/03/24 12:25:44;;;;;;;2.73;2.03;;;12.80;99.90;;;;;;5055751;28;20818;-72
2024/03/24 12:28:15;;;;;;;3.90;2.17;;;12.90;99.90;;;;;;5073868;28;20500;-71
2024/03/24 12:30:51;;;;;;;5.00;1.90;;;12.80;99.90;;;;;;5073724;28;20434;-70
2024/03/24 12:33:22;;;;;;;4.50;2.40;;;12.50;99.90;;;;;;5072842;28;20933;-70
2024/03/24 12:35:49;;;;;;;2.87;2.00;;;12.40;99.90;;;;;;5073468;28;20503;-71
2024/03/24 12:38:15;;;;;;;2.60;1.57;;;12.20;99.90;;;;;;5064771;28;20966;-70
2024/03/24 12:40:50;;;;;;;5.70;2.13;;;12.20;99.90;;;;;;5061422;28;20416;-69
2024/03/24 12:43:16;;;;;;;6.60;2.40;;;12.30;99.90;;;;;;5064763;28;20774;-69
2024/03/24 12:45:59;;;;;;;2.40;1.47;;;12.40;99.90;;;;;;5072975;28;20446;-70
2024/03/24 12:48:28;;;;;;;5.10;1.67;;;12.50;99.10;;;;;;5068819;28;20289;-69